Main page
METAR-TAF:

METAR-TAF

Airports :

Zenata – Messali El Hadj Airport

Tlemcen, Algeria

latitude: 35-01N, longitude: 001-28W, elevation: 247 m

Current weather observation

The report was made 20 minutes ago, at 00:30 UTC
Wind 14 kt from the South
Temperature 14°C
Humidity 72%
Pressure 1015 hPa
Visibility 10 km or more
Few clouds at a height of 2600 ft

METAR: DAON 210030Z 18014KT 9999 FEW026 14/09 Q1015

Time: 01:50 (00:50 UTC)

Forecast

The report was made 1 hour and 50 minutes ago, at 23:00 UTC
Forecast valid from 21 at 00 UTC to 21 at 24 UTC
Wind 11 kt from the South/Southwest
Visibility 10 km or more
Few clouds at a height of 2600 ft
Becoming
from 21 at 15 UTC to 21 at 18 UTC
Wind 2 kt from variable directions

TAF: DAON 202300Z 2100/2124 21011KT 9999 FEW026 BECMG 2115/2118 VRB02KT

Weather observations and forecasts of more than 4000 airports (METAR and TAF reports).

The available stations are represented by yellow and red dots on the map.

Hover mouse over dot to see the name of the station.

Then click to see weather observations and forecasts.

To change the map : click on the green buttons with a black cross to zoom in, on the green button with a dash to zoom out, or on the green arrows for adjacent maps.


METAR-TAF: